createdAt,value
2023-03-29T00:01:57.667Z,47.47
2023-03-29T00:04:24.011Z,48.24
2023-03-29T00:06:50.303Z,48.54
2023-03-29T00:09:16.601Z,48.64
2023-03-29T00:11:42.895Z,48.49
2023-03-29T00:14:09.161Z,48.33
2023-03-29T00:16:35.475Z,48.86
2023-03-29T00:19:01.785Z,48.88
2023-03-29T00:21:28.064Z,48.90
2023-03-29T00:23:54.357Z,49.69
2023-03-29T00:26:20.613Z,50.01
2023-03-29T00:28:46.869Z,50.37
2023-03-29T00:31:13.226Z,50.32
2023-03-29T00:33:39.515Z,49.77
2023-03-29T00:36:05.804Z,50.37
2023-03-29T00:38:32.113Z,50.04
2023-03-29T00:40:58.405Z,50.55
2023-03-29T00:43:24.680Z,50.72
2023-03-29T00:45:50.960Z,50.33
2023-03-29T00:48:17.248Z,50.20
2023-03-29T00:50:43.560Z,50.62
2023-03-29T00:53:09.825Z,50.90
2023-03-29T00:55:36.098Z,51.06
2023-03-29T00:58:02.350Z,50.78
2023-03-29T01:00:28.620Z,50.85
2023-03-29T01:02:55.008Z,51.53
2023-03-29T01:05:21.393Z,51.14
2023-03-29T01:07:47.661Z,51.69
2023-03-29T01:10:13.947Z,51.67
2023-03-29T01:12:40.203Z,51.21
2023-03-29T01:15:06.489Z,51.54
2023-03-29T01:17:32.816Z,52.16
2023-03-29T01:19:59.141Z,51.94
2023-03-29T01:22:25.424Z,51.50
2023-03-29T01:24:51.677Z,51.79
2023-03-29T01:27:17.948Z,51.39
2023-03-29T01:29:44.240Z,51.02
2023-03-29T01:32:10.587Z,50.70
2023-03-29T01:34:37.058Z,50.59
2023-03-29T01:37:03.347Z,50.38
2023-03-29T01:39:29.627Z,50.10
2023-03-29T01:41:55.899Z,49.94
2023-03-29T01:44:22.186Z,49.31
2023-03-29T01:46:48.452Z,49.68
2023-03-29T01:49:14.686Z,49.11
2023-03-29T01:51:40.956Z,48.05
2023-03-29T01:54:07.253Z,48.08
2023-03-29T01:56:33.545Z,47.26
2023-03-29T01:58:59.834Z,46.93
2023-03-29T02:01:26.221Z,47.46
2023-03-29T02:03:52.555Z,47.33
2023-03-29T02:06:18.819Z,47.85
2023-03-29T02:08:45.108Z,47.61
2023-03-29T02:11:11.403Z,48.01
2023-03-29T02:13:37.688Z,47.71
2023-03-29T02:16:04.006Z,47.45
2023-03-29T02:18:30.276Z,46.87
2023-03-29T02:20:56.560Z,46.35
2023-03-29T02:23:22.814Z,45.53
2023-03-29T02:25:49.085Z,45.92
2023-03-29T02:28:15.360Z,46.40
2023-03-29T02:30:41.630Z,45.85
2023-03-29T02:33:07.943Z,46.09
2023-03-29T02:35:34.306Z,45.75
2023-03-29T02:38:00.663Z,46.30
2023-03-29T02:40:26.925Z,46.32
2023-03-29T02:42:53.186Z,46.26
2023-03-29T02:45:19.475Z,45.68
2023-03-29T02:47:45.807Z,46.00
2023-03-29T02:50:12.113Z,46.34
2023-03-29T02:52:38.395Z,45.69
2023-03-29T02:55:04.649Z,46.39
2023-03-29T02:57:30.905Z,46.27
2023-03-29T02:59:57.307Z,46.30
2023-03-29T03:02:23.652Z,46.35
2023-03-29T03:04:49.917Z,46.34
2023-03-29T03:07:16.206Z,45.79
2023-03-29T03:09:42.513Z,46.26
2023-03-29T03:12:08.775Z,46.99
2023-03-29T03:14:35.042Z,47.55
2023-03-29T03:17:03.937Z,48.56
2023-03-29T03:19:30.917Z,48.65
2023-03-29T03:21:57.212Z,48.76
2023-03-29T03:24:23.477Z,48.82
2023-03-29T03:26:49.757Z,48.89
2023-03-29T03:29:16.003Z,49.18
2023-03-29T03:31:42.408Z,49.16
2023-03-29T03:34:08.730Z,48.86
2023-03-29T03:36:34.978Z,48.76
2023-03-29T03:39:01.236Z,49.55
2023-03-29T03:41:27.518Z,49.63
2023-03-29T03:43:53.801Z,49.70
2023-03-29T03:46:20.156Z,50.45
2023-03-29T03:48:46.509Z,50.01
2023-03-29T03:51:12.782Z,49.28
2023-03-29T03:53:39.077Z,49.46
2023-03-29T03:56:05.325Z,49.48
2023-03-29T03:58:31.604Z,48.90
2023-03-29T04:00:57.883Z,49.55
2023-03-29T04:03:24.323Z,49.79
2023-03-29T04:05:50.666Z,49.42
2023-03-29T04:08:16.922Z,50.84
2023-03-29T04:10:43.205Z,50.01
2023-03-29T04:13:09.459Z,50.67
2023-03-29T04:15:35.744Z,50.93
2023-03-29T04:18:02.122Z,50.73
2023-03-29T04:20:28.429Z,52.19
2023-03-29T04:22:54.682Z,51.67
2023-03-29T04:25:21.128Z,51.10
2023-03-29T04:27:47.409Z,50.82
2023-03-29T04:30:13.668Z,49.57
2023-03-29T04:32:39.956Z,49.38
2023-03-29T04:35:06.261Z,48.82
2023-03-29T04:37:32.565Z,48.29
2023-03-29T04:39:58.835Z,48.29
2023-03-29T04:42:25.120Z,49.60
2023-03-29T04:44:51.400Z,48.52
2023-03-29T04:47:17.760Z,48.48
2023-03-29T04:49:44.116Z,47.98
2023-03-29T04:52:10.448Z,48.26
2023-03-29T04:54:36.723Z,48.22
2023-03-29T04:57:03.029Z,48.57
2023-03-29T04:59:29.331Z,48.43
2023-03-29T05:01:55.598Z,47.98
2023-03-29T05:04:22.047Z,48.19
2023-03-29T05:06:48.384Z,48.19
2023-03-29T05:09:14.662Z,48.09
2023-03-29T05:11:40.955Z,48.18
2023-03-29T05:14:07.227Z,48.02
2023-03-29T05:16:33.603Z,48.28
2023-03-29T05:18:59.938Z,48.01
2023-03-29T05:21:26.303Z,47.74
2023-03-29T05:23:52.574Z,47.71
2023-03-29T05:26:18.866Z,48.00
2023-03-29T05:28:45.113Z,48.30
2023-03-29T05:31:11.405Z,48.03
2023-03-29T05:33:37.704Z,47.97
2023-03-29T05:36:04.020Z,47.94
2023-03-29T05:38:30.337Z,48.21
2023-03-29T05:40:56.640Z,47.71
2023-03-29T05:43:22.933Z,47.34
2023-03-29T05:45:49.246Z,47.75
2023-03-29T05:48:15.581Z,48.89
2023-03-29T05:50:43.287Z,49.54
2023-03-29T05:53:10.703Z,50.07
2023-03-29T05:55:37.088Z,50.39
2023-03-29T05:58:03.336Z,50.76
2023-03-29T06:00:29.610Z,51.05
2023-03-29T06:02:59.281Z,51.49
2023-03-29T06:05:32.854Z,51.77
2023-03-29T06:07:59.113Z,51.87
2023-03-29T06:10:25.362Z,52.27
2023-03-29T06:12:51.674Z,52.42
2023-03-29T06:15:17.928Z,52.02
2023-03-29T06:17:44.256Z,52.17
2023-03-29T06:20:10.634Z,52.00
2023-03-29T06:22:36.903Z,52.94
2023-03-29T06:25:03.172Z,52.99
2023-03-29T06:27:29.423Z,53.21
2023-03-29T06:29:55.678Z,53.22
2023-03-29T06:32:21.944Z,52.83
2023-03-29T06:34:48.192Z,52.64
2023-03-29T06:37:14.458Z,52.87
2023-03-29T06:39:40.781Z,52.80
2023-03-29T06:42:20.157Z,52.87
2023-03-29T06:44:47.665Z,52.76
2023-03-29T06:47:13.917Z,53.38
2023-03-29T06:49:40.205Z,53.36
2023-03-29T06:52:06.477Z,54.34
2023-03-29T06:54:32.747Z,53.46
2023-03-29T06:56:59.063Z,54.09
2023-03-29T06:59:25.353Z,53.49
2023-03-29T07:01:51.659Z,53.90
2023-03-29T07:04:18.241Z,56.02
2023-03-29T07:06:44.575Z,54.78
2023-03-29T07:09:10.851Z,54.65
2023-03-29T07:11:37.126Z,56.26
2023-03-29T07:14:03.378Z,55.31
2023-03-29T07:16:29.665Z,55.63
2023-03-29T07:18:55.958Z,54.94
2023-03-29T07:21:22.208Z,54.76
2023-03-29T07:23:48.464Z,55.01
2023-03-29T07:26:14.720Z,55.70
2023-03-29T07:28:55.743Z,55.98
2023-03-29T07:31:21.985Z,55.35
2023-03-29T07:33:48.349Z,56.75
2023-03-29T07:36:14.694Z,56.30
2023-03-29T07:38:40.961Z,56.13
2023-03-29T07:41:07.283Z,55.30
2023-03-29T07:43:33.880Z,55.82
2023-03-29T07:46:00.227Z,55.83
2023-03-29T07:48:26.489Z,55.51
2023-03-29T07:50:52.774Z,55.69
2023-03-29T07:53:19.084Z,55.70
2023-03-29T07:55:46.941Z,55.76
2023-03-29T07:58:13.520Z,56.50
2023-03-29T08:00:39.808Z,56.62
2023-03-29T08:03:06.162Z,56.08
2023-03-29T08:05:40.569Z,55.48
2023-03-29T08:08:07.861Z,54.90
2023-03-29T08:10:34.139Z,54.79
2023-03-29T08:13:00.428Z,53.84
2023-03-29T08:15:26.696Z,53.75
2023-03-29T08:17:53.007Z,53.51
2023-03-29T08:20:19.325Z,53.54
2023-03-29T08:22:45.580Z,53.20
2023-03-29T08:25:11.856Z,53.42
2023-03-29T08:27:38.172Z,53.25
2023-03-29T08:30:04.432Z,53.54
2023-03-29T08:32:30.787Z,54.50
2023-03-29T08:34:57.073Z,54.10
2023-03-29T08:37:23.322Z,54.12
2023-03-29T08:39:49.590Z,54.34
2023-03-29T08:42:15.855Z,54.14
2023-03-29T08:44:42.108Z,54.80
2023-03-29T08:47:08.376Z,54.07
2023-03-29T08:49:34.648Z,54.42
2023-03-29T08:52:00.915Z,54.19
2023-03-29T08:54:27.227Z,53.87
2023-03-29T08:56:53.621Z,53.40
2023-03-29T08:59:19.898Z,53.33
2023-03-29T09:01:48.033Z,50.70
2023-03-29T09:04:14.869Z,50.90
2023-03-29T09:06:41.171Z,51.35
2023-03-29T09:09:07.484Z,50.78
2023-03-29T09:11:33.739Z,51.12
2023-03-29T09:14:00.003Z,51.83
2023-03-29T09:16:26.300Z,50.88
2023-03-29T09:18:52.581Z,51.96
2023-03-29T09:21:18.844Z,52.41
2023-03-29T09:23:45.127Z,51.78
2023-03-29T09:26:11.419Z,51.38
2023-03-29T09:28:37.680Z,51.41
2023-03-29T09:31:04.364Z,51.58
2023-03-29T09:33:30.851Z,51.96
2023-03-29T09:35:57.164Z,52.03
2023-03-29T09:38:23.504Z,51.09
2023-03-29T09:40:49.827Z,51.45
2023-03-29T09:43:16.081Z,51.29
2023-03-29T09:45:42.380Z,50.58
2023-03-29T09:48:08.702Z,52.40
2023-03-29T09:50:34.990Z,52.19
2023-03-29T09:53:01.284Z,52.51
2023-03-29T09:55:27.590Z,51.33
2023-03-29T09:57:54.255Z,52.62
2023-03-29T10:00:20.533Z,51.92
2023-03-29T10:02:46.848Z,51.55
2023-03-29T10:05:13.133Z,50.72
2023-03-29T10:07:39.403Z,50.73
2023-03-29T10:10:05.683Z,51.03
2023-03-29T10:12:31.984Z,51.51
2023-03-29T10:14:58.257Z,51.74
2023-03-29T10:17:24.661Z,51.69
2023-03-29T10:19:50.960Z,52.81
2023-03-29T10:22:17.225Z,51.73
2023-03-29T10:24:43.505Z,52.03
2023-03-29T10:27:09.756Z,51.56
2023-03-29T10:29:36.026Z,52.13
2023-03-29T10:32:02.386Z,51.09
2023-03-29T10:34:28.699Z,51.38
2023-03-29T10:36:54.963Z,51.80
2023-03-29T10:39:21.231Z,50.89
2023-03-29T10:41:47.487Z,51.01
2023-03-29T10:44:13.738Z,50.15
2023-03-29T10:46:40.205Z,51.46
2023-03-29T10:49:06.621Z,50.82
2023-03-29T10:51:32.884Z,51.14
2023-03-29T10:53:59.175Z,51.22
2023-03-29T10:56:25.448Z,51.92
2023-03-29T10:58:51.705Z,51.43
2023-03-29T11:01:18.016Z,51.90
2023-03-29T11:03:44.404Z,52.01
2023-03-29T11:06:10.736Z,51.21
2023-03-29T11:08:36.989Z,50.08
2023-03-29T11:11:03.430Z,50.71
2023-03-29T11:13:29.914Z,51.54
2023-03-29T11:15:56.243Z,51.40
2023-03-29T11:18:22.551Z,50.80
2023-03-29T11:20:48.890Z,50.84
2023-03-29T11:23:15.161Z,52.57
2023-03-29T11:25:41.397Z,52.29
2023-03-29T11:28:07.676Z,52.15
2023-03-29T11:30:33.940Z,51.99
2023-03-29T11:33:00.431Z,51.54
2023-03-29T11:35:26.705Z,51.31
2023-03-29T11:37:52.972Z,51.65
2023-03-29T11:40:19.251Z,51.45
2023-03-29T11:42:45.544Z,51.12
2023-03-29T11:45:11.806Z,51.64
2023-03-29T11:47:38.063Z,52.25
2023-03-29T11:50:04.477Z,52.74
2023-03-29T11:52:30.747Z,51.31
2023-03-29T11:54:57.132Z,52.10
2023-03-29T11:57:23.488Z,52.77
2023-03-29T11:59:49.820Z,51.72
2023-03-29T12:02:16.099Z,51.40
2023-03-29T12:04:42.379Z,50.47
2023-03-29T12:07:08.675Z,50.70
2023-03-29T12:09:34.982Z,50.81
2023-03-29T12:12:01.274Z,49.03
2023-03-29T12:14:28.203Z,49.59
2023-03-29T12:16:54.606Z,50.97
2023-03-29T12:19:20.897Z,51.45
2023-03-29T12:21:47.473Z,50.82
2023-03-29T12:24:13.846Z,50.86
2023-03-29T12:26:40.084Z,51.94
2023-03-29T12:29:06.353Z,51.38
2023-03-29T12:31:32.674Z,52.07
2023-03-29T12:33:59.034Z,51.13
2023-03-29T12:36:25.302Z,51.47
2023-03-29T12:38:51.565Z,51.06
2023-03-29T12:41:17.820Z,50.03
2023-03-29T12:43:44.072Z,48.97
2023-03-29T12:46:10.389Z,48.96
2023-03-29T12:48:36.672Z,49.32
2023-03-29T12:51:02.925Z,49.26
2023-03-29T12:53:29.193Z,50.26
2023-03-29T12:55:55.458Z,49.43
2023-03-29T12:58:21.726Z,49.36
2023-03-29T13:00:48.030Z,49.10
2023-03-29T13:03:14.329Z,49.74
2023-03-29T13:05:40.667Z,49.08
2023-03-29T13:08:06.955Z,49.48
2023-03-29T13:10:33.223Z,49.77
2023-03-29T13:12:59.489Z,49.43
2023-03-29T13:15:25.733Z,49.59
2023-03-29T13:17:52.077Z,49.54
2023-03-29T13:20:18.422Z,49.43
2023-03-29T13:22:44.677Z,50.34
2023-03-29T13:25:10.946Z,50.53
2023-03-29T13:27:37.276Z,51.04
2023-03-29T13:30:03.545Z,50.47
2023-03-29T13:32:29.802Z,49.05
2023-03-29T13:34:56.102Z,48.21
2023-03-29T13:37:22.362Z,48.16
2023-03-29T13:39:48.605Z,47.91
2023-03-29T13:42:14.873Z,48.22
2023-03-29T13:44:41.142Z,47.94
2023-03-29T13:47:07.467Z,47.63
2023-03-29T13:49:33.754Z,46.85
2023-03-29T13:52:00.010Z,46.00
2023-03-29T13:54:26.350Z,46.42
2023-03-29T13:56:52.663Z,47.13
2023-03-29T13:59:18.953Z,46.51
2023-03-29T14:01:45.263Z,46.29
2023-03-29T14:04:11.549Z,47.43
2023-03-29T14:06:37.841Z,47.00
2023-03-29T14:09:04.151Z,46.47
2023-03-29T14:11:30.487Z,46.88
2023-03-29T14:13:56.780Z,46.37
2023-03-29T14:16:23.081Z,46.61
2023-03-29T14:18:49.386Z,45.29
2023-03-29T14:21:15.678Z,45.60
2023-03-29T14:23:42.012Z,45.74
2023-03-29T14:26:08.300Z,45.80
2023-03-29T14:28:34.562Z,43.24
2023-03-29T14:31:00.825Z,43.22
2023-03-29T14:33:27.098Z,43.81
2023-03-29T14:35:53.471Z,43.42
2023-03-29T14:38:19.811Z,43.96
2023-03-29T14:40:46.066Z,44.64
2023-03-29T14:43:12.581Z,44.50
2023-03-29T14:45:38.918Z,44.97
2023-03-29T14:48:05.246Z,43.47
2023-03-29T14:50:31.590Z,43.51
2023-03-29T14:52:57.849Z,42.94
2023-03-29T14:55:24.160Z,44.02
2023-03-29T14:57:50.421Z,43.74
2023-03-29T15:00:16.671Z,43.44
2023-03-29T15:02:43.021Z,44.03
2023-03-29T15:05:09.352Z,44.05
2023-03-29T15:07:35.615Z,44.81
2023-03-29T15:10:02.002Z,45.53
2023-03-29T15:12:28.328Z,46.06
2023-03-29T15:14:54.653Z,45.93
2023-03-29T15:17:20.908Z,45.43
2023-03-29T15:19:47.198Z,45.56
2023-03-29T15:22:13.475Z,44.84
2023-03-29T15:24:39.720Z,43.95
2023-03-29T15:27:05.996Z,45.10
2023-03-29T15:29:32.286Z,44.96
2023-03-29T15:31:58.594Z,43.82
2023-03-29T15:34:24.891Z,44.62
2023-03-29T15:36:51.201Z,44.40
2023-03-29T15:39:17.543Z,44.69
2023-03-29T15:41:43.820Z,44.96
2023-03-29T15:44:10.114Z,44.24
2023-03-29T15:46:36.423Z,44.77
2023-03-29T15:49:02.725Z,45.22
2023-03-29T15:51:29.023Z,43.22
2023-03-29T15:53:55.328Z,43.20
2023-03-29T15:56:21.609Z,44.72
2023-03-29T15:58:47.878Z,43.04
2023-03-29T16:01:14.179Z,42.92
2023-03-29T16:03:40.516Z,43.22
2023-03-29T16:06:06.973Z,42.90
2023-03-29T16:08:33.214Z,42.09
2023-03-29T16:10:59.493Z,42.45
2023-03-29T16:13:25.766Z,41.97
2023-03-29T16:15:52.077Z,42.82
2023-03-29T16:18:18.362Z,42.39
2023-03-29T16:20:44.619Z,40.79
2023-03-29T16:23:10.890Z,42.03
2023-03-29T16:25:37.208Z,41.68
2023-03-29T16:28:03.464Z,41.59
2023-03-29T16:30:29.757Z,42.53
2023-03-29T16:32:56.114Z,43.35
2023-03-29T16:35:22.431Z,42.89
2023-03-29T16:37:48.708Z,42.64
2023-03-29T16:40:14.994Z,42.83
2023-03-29T16:42:41.252Z,42.91
2023-03-29T16:45:07.543Z,42.74
2023-03-29T16:47:33.869Z,43.92
2023-03-29T16:50:00.226Z,43.70
2023-03-29T16:52:26.557Z,44.01
2023-03-29T16:54:52.810Z,43.45
2023-03-29T16:57:19.121Z,44.62
2023-03-29T16:59:45.453Z,45.41
2023-03-29T17:02:11.926Z,45.24
2023-03-29T17:04:38.273Z,43.91
2023-03-29T17:07:04.585Z,44.21
2023-03-29T17:09:30.884Z,46.26
2023-03-29T17:11:57.155Z,47.34
2023-03-29T17:14:23.472Z,47.71
2023-03-29T17:16:49.774Z,48.38
2023-03-29T17:19:16.026Z,48.87
2023-03-29T17:21:42.296Z,49.09
2023-03-29T17:24:08.570Z,49.53
2023-03-29T17:26:34.915Z,49.71
2023-03-29T17:29:01.184Z,50.03
2023-03-29T17:31:27.484Z,49.86
2023-03-29T17:33:53.796Z,49.54
2023-03-29T17:36:20.110Z,49.51
2023-03-29T17:38:46.423Z,49.43
2023-03-29T17:41:12.712Z,49.64
2023-03-29T17:43:38.980Z,49.95
2023-03-29T17:46:05.429Z,50.02
2023-03-29T17:48:31.981Z,50.45
2023-03-29T17:50:58.257Z,50.04
2023-03-29T17:53:24.534Z,49.53
2023-03-29T17:55:50.808Z,49.84
2023-03-29T17:58:17.052Z,49.96
2023-03-29T18:00:43.336Z,50.20
2023-03-29T18:03:09.680Z,50.09
2023-03-29T18:05:35.983Z,50.18
2023-03-29T18:08:02.260Z,50.05
2023-03-29T18:10:28.561Z,50.26
2023-03-29T18:12:54.860Z,50.50
2023-03-29T18:15:21.133Z,50.56
2023-03-29T18:17:47.437Z,50.31
2023-03-29T18:20:13.756Z,50.06
2023-03-29T18:22:40.030Z,50.34
2023-03-29T18:25:06.306Z,50.16
2023-03-29T18:27:32.569Z,50.23
2023-03-29T18:29:58.871Z,50.48
2023-03-29T18:32:25.138Z,50.27
2023-03-29T18:34:51.443Z,50.19
2023-03-29T18:37:17.723Z,50.21
2023-03-29T18:39:43.988Z,50.63
2023-03-29T18:42:12.077Z,50.61
2023-03-29T18:44:38.933Z,50.48
2023-03-29T18:47:05.212Z,50.49
2023-03-29T18:49:31.495Z,50.35
2023-03-29T18:51:57.787Z,50.21
2023-03-29T18:54:24.086Z,50.10
2023-03-29T18:56:50.373Z,50.25
2023-03-29T18:59:16.669Z,50.29
2023-03-29T19:01:43.029Z,50.11
2023-03-29T19:04:09.326Z,49.78
2023-03-29T19:06:35.584Z,49.83
2023-03-29T19:09:01.893Z,50.09
2023-03-29T19:11:29.043Z,49.87
2023-03-29T19:13:55.453Z,50.31
2023-03-29T19:16:21.775Z,50.09
2023-03-29T19:18:48.094Z,50.11
2023-03-29T19:21:14.387Z,50.45
2023-03-29T19:23:40.658Z,50.01
2023-03-29T19:26:07.097Z,50.34
2023-03-29T19:28:33.482Z,50.34
2023-03-29T19:30:59.811Z,49.98
2023-03-29T19:33:26.182Z,50.34
2023-03-29T19:35:52.512Z,50.53
2023-03-29T19:38:18.848Z,50.19
2023-03-29T19:40:45.117Z,50.18
2023-03-29T19:43:11.387Z,50.13
2023-03-29T19:45:37.640Z,50.52
2023-03-29T19:48:04.030Z,50.35
2023-03-29T19:50:30.307Z,50.04
2023-03-29T19:52:56.555Z,49.63
2023-03-29T19:55:22.833Z,49.79
2023-03-29T19:57:49.124Z,49.62
2023-03-29T20:00:15.380Z,50.01
2023-03-29T20:02:41.709Z,50.21
2023-03-29T20:05:08.041Z,50.52
2023-03-29T20:07:34.315Z,50.03
2023-03-29T20:10:00.594Z,50.51
2023-03-29T20:12:26.853Z,50.22
2023-03-29T20:14:53.113Z,50.42
2023-03-29T20:17:19.397Z,50.43
2023-03-29T20:19:47.851Z,50.31
2023-03-29T20:22:14.185Z,50.91
2023-03-29T20:24:40.545Z,50.49
2023-03-29T20:27:06.893Z,50.49
2023-03-29T20:29:33.180Z,50.36
2023-03-29T20:31:59.458Z,51.00
2023-03-29T20:34:25.824Z,50.89
2023-03-29T20:36:52.165Z,51.07
2023-03-29T20:39:18.439Z,50.41
2023-03-29T20:41:44.700Z,51.23
2023-03-29T20:44:11.014Z,50.79
2023-03-29T20:46:37.343Z,51.42
2023-03-29T20:49:03.621Z,51.72
2023-03-29T20:51:29.879Z,51.20
2023-03-29T20:53:56.237Z,51.01
2023-03-29T20:56:22.522Z,51.43
2023-03-29T20:58:48.887Z,51.63
2023-03-29T21:01:15.280Z,51.87
2023-03-29T21:03:41.677Z,51.45
2023-03-29T21:06:08.111Z,51.71
2023-03-29T21:08:35.465Z,51.71
2023-03-29T21:11:01.923Z,51.45
2023-03-29T21:13:28.305Z,50.97
2023-03-29T21:15:54.643Z,50.94
2023-03-29T21:18:20.974Z,51.35
2023-03-29T21:20:47.222Z,51.02
2023-03-29T21:23:13.506Z,50.94
2023-03-29T21:25:39.821Z,50.81
2023-03-29T21:28:06.172Z,50.60
2023-03-29T21:30:32.436Z,51.12
2023-03-29T21:32:58.786Z,51.12
2023-03-29T21:35:25.109Z,51.46
2023-03-29T21:37:51.392Z,51.09
2023-03-29T21:40:17.675Z,51.27
2023-03-29T21:42:43.982Z,51.45
2023-03-29T21:45:10.271Z,51.01
2023-03-29T21:47:36.577Z,51.35
2023-03-29T21:50:02.907Z,51.12
2023-03-29T21:52:29.253Z,51.81
2023-03-29T21:54:55.566Z,51.79
2023-03-29T21:57:21.960Z,51.69
2023-03-29T21:59:48.267Z,51.77
2023-03-29T22:02:14.604Z,51.82
2023-03-29T22:04:40.885Z,51.99
2023-03-29T22:07:07.152Z,51.98
2023-03-29T22:09:33.455Z,51.59
2023-03-29T22:11:59.861Z,52.05
2023-03-29T22:14:26.222Z,51.80
2023-03-29T22:16:52.698Z,52.13
2023-03-29T22:19:19.023Z,52.01
2023-03-29T22:21:45.297Z,51.83
2023-03-29T22:24:11.549Z,52.28
2023-03-29T22:26:37.823Z,51.81
2023-03-29T22:29:04.106Z,51.47
2023-03-29T22:31:30.473Z,52.07
2023-03-29T22:33:56.775Z,51.70
2023-03-29T22:36:23.054Z,52.00
2023-03-29T22:38:49.355Z,51.67
2023-03-29T22:41:15.624Z,52.25
2023-03-29T22:43:41.889Z,51.74
2023-03-29T22:46:08.167Z,51.33
2023-03-29T22:48:34.489Z,51.99
2023-03-29T22:51:00.837Z,51.76
2023-03-29T22:53:27.099Z,52.33
2023-03-29T22:55:53.368Z,51.83
2023-03-29T22:58:19.646Z,52.05
2023-03-29T23:00:45.918Z,52.24
2023-03-29T23:03:12.202Z,52.25
2023-03-29T23:05:38.473Z,51.75
2023-03-29T23:08:04.791Z,51.53
2023-03-29T23:10:31.037Z,51.81
2023-03-29T23:12:57.310Z,51.71
2023-03-29T23:15:23.568Z,52.11
2023-03-29T23:17:49.884Z,52.00
2023-03-29T23:20:16.222Z,52.02
2023-03-29T23:22:42.725Z,52.11
2023-03-29T23:25:09.067Z,52.70
2023-03-29T23:27:35.309Z,52.77
2023-03-29T23:30:01.585Z,53.11
2023-03-29T23:32:27.871Z,52.61
2023-03-29T23:34:54.158Z,53.00
2023-03-29T23:37:20.423Z,52.81
2023-03-29T23:39:46.677Z,52.52
2023-03-29T23:42:12.914Z,52.05
2023-03-29T23:44:39.184Z,51.74
2023-03-29T23:47:05.458Z,52.36
2023-03-29T23:49:31.749Z,51.43
2023-03-29T23:51:58.008Z,51.75
2023-03-29T23:54:24.281Z,51.88
2023-03-29T23:56:50.582Z,51.58
2023-03-29T23:59:16.832Z,51.52
